Aviation Digital Data Service (ADDS)

Output produced by METARs form (1901 UTC 18 June 2019)
found at http://www.aviationweather.gov/metar/data/
 
KAKO 181853Z AUTO 11007KT 10SM SCT011 BKN021 BKN055 16/14 A3007 RMK AO2 SLP146 T01610139
KALS 181852Z AUTO VRB04KT 10SM CLR 21/06 A3018 RMK AO2 LTG DSNT NW SLP134 T02060056
KALS 181720Z 1818/1918 27010KT P6SM VCTS SCT080CB 
     FM182000 29015G25KT P6SM VCTS SCT060CB BKN120 
     TEMPO 1820/1824 VRB20G30KT 5SM TSRA 
     FM190100 33007KT P6SM VCSH SCT070 BKN150 
     FM190700 VRB05KT P6SM SCT100 SCT200
       
KASE 181853Z 33010G16KT 10SM SCT028 BKN046 OVC110 13/07 A3023 RMK AO2 LTG DSNT N AND SW RAB24E36 SLP143 P0000 T01330067
KASE 181741Z 1818/1918 35008KT P6SM -SHRA VCTS BKN040CB OVC070 
     TEMPO 1818/1822 VRB15G25KT 4SM -TSRA BKN035CB OVC050 
     FM182200 05008KT P6SM VCTS SCT035CB BKN060 
     FM190100 14008KT P6SM VCSH SCT040 BKN060 
     FM190800 VRB04KT P6SM SCT040 BKN070
       
KBDU 181853Z AUTO 06003KT 10SM -VCTSRA SCT045 BKN080 OVC090 18/11 A3007 RMK AO2 LTG DSNT SE THRU NW
KAEJ 181855Z AUTO 25023G27KT 10SM TS SCT070 BKN110 20/01 A3018 RMK AO2 LTG DSNT ALQS T01960010
KITR 181853Z AUTO 04007KT 10SM SCT017 OVC055 21/15 A3004 RMK AO2 SLP130 T02060150
K1V6 181850Z AUTO 14007KT 10SM CLR 25/10 A3003 RMK AO2 LTG DSNT ALQS
KCOS 181854Z VRB03KT 10SM VCTS SCT027 BKN090CB BKN230 19/11 A3012 RMK AO2 LTG DSNT NE AND E SLP133 OCNL LTGICCG VC N-NE TS VC N-NE MOV SE T01890106
KCOS 181801Z 1818/1918 15008KT P6SM VCTS SCT030CB BKN090 
     FM182000 34012KT P6SM VCTS SCT050CB BKN100 
     TEMPO 1820/1824 VRB15G25KT 5SM TSRA 
     FM190200 36007KT P6SM VCSH SCT060 BKN120 
     FM190600 36005KT P6SM FEW100 SCT200
       
KFLY 181855Z AUTO 32006KT 3SM +TSRA SCT018 BKN028 OVC046 11/08 A3016 RMK AO2 LTG DSNT ALQS T01070075
KCEZ 181853Z AUTO 21005KT 10SM FEW070 SCT080 25/07 A3014 RMK AO2 LTG DSNT N SLP141 T02500067
KCAG 181853Z AUTO 29008KT 10SM SCT041 BKN055 OVC110 20/08 A3013 RMK AO2 LTG DSNT E RAB06E17 SLP143 P0000 T02000078
KAJZ 181855Z AUTO 07003KT 10SM -VCTSRA SCT029 SCT070 BKN090 20/11 A3014 RMK AO2 LTG DSNT ALQS P0001 T02000106
KAPA 181853Z 25006KT 7SM -RA FEW010 BKN030 OVC055 15/13 A3011 RMK AO2 LTG DSNT SE TSE07 SLP152 OCNL LTGICCG DSNT SE P0005 T01500128
KAPA 181737Z 1818/1918 03005KT P6SM VCTS BKN025CB BKN080 
     TEMPO 1818/1822 VRB15G25KT 5SM -TSRA BKN030CB 
     FM190000 09010KT P6SM VCSH SCT050 BKN080 
     TEMPO 1901/1904 VRB15G25KT -TSRA SCT050CB 
     FM190800 20005KT P6SM FEW060 BKN110 
     FM191100 23006KT P6SM SCT120 SCT220
       
KDEN 181853Z 26012KT 10SM SCT034 SCT045 BKN070 19/12 A3007 RMK AO2 SLP124 T01940117
KDEN 181737Z 1818/1924 VRB05KT P6SM VCTS FEW020CB BKN035 BKN080 
     FM181900 03006KT P6SM VCTS BKN040CB BKN090 
     TEMPO 1819/1823 VRB18G28KT 5SM -TSRA BKN030CB 
     FM190000 09010KT P6SM VCSH SCT050 BKN080 
     TEMPO 1901/1904 VRB15G25KT -TSRA SCT050CB 
     FM190800 22005KT P6SM FEW060 BKN110 
     FM191100 25006KT P6SM SCT120 SCT220 
     FM191800 30010KT P6SM FEW110 SCT200
       
KFTG 181852Z 09005KT 10SM RA SCT032 BKN044 OVC085 18/14 A3010
KBJC 181845Z 19005KT 10SM SCT020 BKN080 18/13 A3010
KBJC 181737Z 1818/1918 VRB04KT P6SM VCTS BKN025CB BKN080 
     TEMPO 1818/1822 VRB20G30KT 5SM -TSRA BKN030CB 
     FM182300 08011KT P6SM VCTS SCT050CB BKN080 
     TEMPO 1900/1903 -TSRA SCT050CB 
     FM190800 20005KT P6SM FEW060 BKN110 
     FM191100 23006KT P6SM SCT120 SCT220
       
KDRO 181853Z AUTO 25007G22KT 10SM FEW075 FEW090 24/04 A3016 RMK AO2 LTG DSNT N AND NE SLP143 T02390039
KDRO 181741Z 1818/1918 24008KT P6SM VCTS FEW070CB SCT120 
     FM182000 26016G24KT P6SM VCTS SCT070CB BKN100 
     TEMPO 1820/1824 VRB15G30KT 5SM -TSRA OVC060CB 
     FM190000 29012G22KT P6SM FEW070 SCT100 
     FM190300 34009KT P6SM FEW090 SCT250
       
KEGE 181856Z 28003KT 10SM -TSRA OVC065 13/10 A3022 RMK AO2 LTG DSNT N TSB51RAB10 SLP202 P0006 T01330100
KEGE 181741Z 1818/1918 VRB04KT P6SM -SHRA VCTS SCT040CB BKN060 
     FM181900 24010KT P6SM VCTS SCT040CB BKN070 
     TEMPO 1819/1823 4SM -TSRA BKN040CB OVC050 
     FM190200 34009KT P6SM VCTS SCT045CB BKN080 
     FM190600 09005KT P6SM VCSH SCT050 BKN070 
     FM191000 VRB03KT P6SM FEW050 SCT080
       
KEIK 181900Z AUTO 19003KT 10SM -VCTSRA SCT028 SCT048 BKN090 20/12 A3012 RMK AO2 LTG DSNT SE THRU W T01980115
KFNL 181856Z AUTO 24008KT 10SM -RA 17/14 A3008 RMK AO2 LTG DSNT N SLP144 P0001 T01720139 $
KFMM 181855Z AUTO 07004KT 10SM +RA BKN021 OVC026 18/12 A3006 RMK AO2 LTG DSNT ALQS T01770121
KGNB 181850Z AUTO 23004KT 10SM VCTSRA SCT032 OVC043 10/08 A3026 RMK AO2 LTG DSNT ALQS T00950077
KGJT 181853Z 14005KT 10SM SCT110 19/12 A3012 RMK AO2 LTG DSNT SW SLP152 T01940117
KGJT 181741Z 1818/1918 22006KT P6SM -SHRA VCTS BKN060CB OVC080 
     FM181900 35008KT P6SM VCTS BKN060CB OVC080 
     TEMPO 1819/1822 VRB12G20KT 5SM -TSRA OVC060CB 
     FM190100 11012KT P6SM VCTS SCT070CB BKN100 
     FM190700 11007KT P6SM FEW070 SCT150
       
KGXY 181856Z AUTO 24004KT 10SM OVC044 22/12 A3005 RMK AO2 LTG DSNT NW SLP146 T02170117
KGUC 181856Z AUTO 33008G20KT 10SM BKN060 BKN090 BKN110 16/07 A3022 RMK AO2 LTG DSNT ALQDS TSE15RAB03E18 SLP170 P0000 T01610067
KGUC 181741Z 1818/1918 25006KT P6SM VCTS SCT060CB BKN100 
     FM181900 28012G20KT P6SM VCTS SCT050CB BKN090 
     TEMPO 1819/1822 VRB15G30KT 4SM -TSRA OVC050CB 
     FM190300 35005KT P6SM VCSH SCT040 BKN100 
     FM190800 VRB04KT P6SM FEW045 SCT120
       
KHDN 181856Z AUTO VRB05KT 10SM SCT035 BKN048 BKN100 17/10 A3017 RMK AO2 LTG DSNT NE-S SLP158 T01670100
KHDN 181741Z 1818/1918 28007KT P6SM VCSH SCT010 BKN050 
     FM181900 30010KT P6SM VCTS SCT030CB BKN070 
     TEMPO 1819/1823 VRB15G25KT 4SM -TSRA BKN030CB OVC050 
     FM182300 25007KT P6SM VCTS SCT045CB BKN100 
     FM190300 12005KT P6SM VCSH SCT045 BKN100 
     FM190900 10005KT P6SM SCT045 BKN090
       
KHEQ 181855Z AUTO 09005KT 10SM SCT008 BKN018 OVC043 20/15 A3004 RMK AO2 P0001 LTG DSNT W
KLHX 181853Z AUTO 04009G16KT 10SM FEW034 24/13 A3001 RMK AO2 SLP110 T02440128
KLAA 181853Z AUTO 04007KT 10SM BKN037 23/14 A2999 RMK AO2 SLP117 T02280139 $
KLXV 181853Z AUTO 36011G20KT 10SM BKN095 12/03 A3029 RMK AO2 SLP118 T01170028
KLIC 181855Z AUTO 06006KT 10SM FEW046 SCT070 BKN110 16/14 A3009 RMK AO2 LTG DSNT SW RAB02E49 SLP136 P0026 T01610139
KLMO 181855Z AUTO 19004KT 10SM RA BKN028 BKN034 OVC095 22/12 A3009 RMK AO2 T02170123
KEEO 181853Z AUTO 20011G19KT 160V240 10SM FEW037 SCT048 BKN070 18/09 A3016 RMK AO2 LTG DSNT SW AND W SLP143 T01780094
KMTJ 181853Z AUTO 28006KT 10SM FEW029 SCT038 SCT110 19/09 A3018 RMK AO2 LTG DSNT W RAB15E53 SLP160 P0000 T01890089
KMTJ 181741Z 1818/1918 31005KT P6SM VCSH SCT070 BKN100 
     FM181900 33010KT P6SM VCTS SCT050CB BKN090 
     TEMPO 1819/1822 VRB12G20KT 5SM -TSRA BKN050CB OVC070 
     FM182300 14012KT P6SM VCTS SCT050CB BKN100 
     FM190500 13007KT P6SM FEW060 SCT150
       
KAIB 181855Z AUTO 23008G14KT 10SM VCTS CLR 23/06 A3018 RMK AO2 LTG DSNT ALQS
KPSO 181855Z AUTO 21016G21KT 10SM TS SCT075 SCT090 21/02 A3022 RMK AO2 LTG DSNT ALQS T02130018
KPUB 181853Z 14008KT 100V170 10SM FEW034 23/14 A3002 RMK AO2 SLP115 T02280139
KPUB 181801Z 1818/1918 11007KT P6SM BKN030 
     FM182000 07009KT P6SM VCTS SCT070CB BKN120 
     FM182100 02014KT P6SM VCTS SCT060CB BKN100 
     FM190100 30007KT P6SM VCSH SCT070 BKN120 
     FM190600 30005KT P6SM FEW100 SCT200 
     FM191600 25008KT P6SM SKC
       
K4V0 181855Z AUTO 27007KT 10SM TS CLR 23/09 A3010 RMK AO2 LTG DSNT ALQS T02330086
KRIL 181853Z AUTO 01004KT 10SM -RA FEW023 OVC075 15/12 A3018 RMK AO2 RAB03 SLP176 P0004 T01500122 TSNO
KRIL 181741Z 1818/1918 30005KT P6SM -SHRA VCTS SCT050CB BKN070 
     TEMPO 1818/1820 3SM -TSRA BR BKN050CB OVC070 
     FM182000 31010KT P6SM VCTS SCT050CB BKN070 
     TEMPO 1820/1824 VRB15G25KT 4SM -TSRA BKN050CB OVC070 
     FM190200 08005KT P6SM VCSH SCT050 BKN120 
     FM190800 VRB04KT P6SM SCT060 BKN120
       
KANK 181855Z AUTO 27016G25KT 10SM SCT120 22/02 A3024 RMK AO1 T02150018
KSBS 181855Z AUTO 29004KT 3SM SCT020 BKN032 OVC048 12/11 A3019 RMK AO1 T01240106
KSTK 181900Z AUTO 08003KT 10SM SCT020 OVC036 19/13 A3003 RMK AO2 LTG DSNT W
KTEX 181855Z AUTO 03003KT 10SM TS SCT045 BKN050 BKN065 13/05 A3033 RMK AO2 LTG DSNT ALQS
KTEX 181741Z 1818/1918 27008G18KT P6SM VCTS SCT060CB BKN080 
     TEMPO 1818/1821 VRB15G25KT 5SM -TSRA BKN060CB OVC080 
     FM190200 14008KT P6SM VCTS SCT035CB BKN100 
     FM190500 VRB04KT P6SM FEW035 SCT120
       
KTAD 181854Z AUTO VRB06KT 10SM FEW019 FEW100 24/10 A3007 RMK AO2 RAB40E53 SLP109 P0000 T02440100
K33V 181855Z AUTO 25008KT 10SM SCT026 BKN033 OVC080 14/06 A3021 RMK AO1
K2V5 181855Z AUTO 07005KT 10SM BKN009 OVC021 18/15 A3004 RMK AO2
K2V6 181859Z AUTO 06006KT 10SM SCT009 SCT013 OVC023 16/09 A3005 RMK AO2 LTG DSNT W